Time;durP1;ratioP1;P1;durP2;ratioP2;P2;SDS_P1;SDS_P2;PMS_P1;PMS_P2;Temp;Humidity;BMP_temperature;BMP_pressure;BME280_temperature;BME280_humidity;BME280_pressure;Samples;Min_cycle;Max_cycle;Signal;HPM_P1;HPM_P2
2021/04/09 00:00:28;;;;;;;33.13;17.42;;;;;;;1.72;74.32;99449.44;1660113;85;21086;-60
2021/04/09 00:02:57;;;;;;;26.70;16.00;;;;;;;1.70;74.40;99437.02;1631951;86;21086;-61
2021/04/09 00:05:26;;;;;;;32.17;17.25;;;;;;;1.70;74.44;99448.47;1693929;83;21068;-60
2021/04/09 00:07:57;;;;;;;27.20;16.47;;;;;;;1.68;74.54;99448.78;1660263;86;21114;-60
2021/04/09 00:10:27;;;;;;;24.92;15.35;;;;;;;1.66;74.67;99450.39;1631910;86;21051;-60
2021/04/09 00:12:56;;;;;;;28.50;15.13;;;;;;;1.63;74.72;99451.47;1693840;83;21040;-59
2021/04/09 00:15:24;;;;;;;21.55;13.80;;;;;;;1.61;74.80;99452.69;1693684;83;21139;-60
2021/04/09 00:17:54;;;;;;;25.10;14.73;;;;;;;1.60;74.91;99458.95;1693703;83;21046;-60
2021/04/09 00:20:25;;;;;;;20.30;13.30;;;;;;;1.58;74.98;99457.98;1660229;85;21074;-61
2021/04/09 00:22:53;;;;;;;29.65;14.35;;;;;;;1.60;75.04;99461.09;1655175;86;21074;-60
2021/04/09 00:25:22;;;;;;;25.43;14.55;;;;;;;1.59;75.02;99462.30;1693900;83;21179;-59
2021/04/09 00:27:50;;;;;;;25.62;14.47;;;;;;;1.56;75.13;99469.36;1660047;85;21098;-60
2021/04/09 00:30:24;;;;;;;25.75;14.78;;;;;;;1.52;75.18;99467.03;1655082;86;21078;-61
2021/04/09 00:32:52;;;;;;;25.30;14.33;;;;;;;1.53;75.27;99476.83;1654797;86;21067;-60
2021/04/09 00:35:21;;;;;;;26.05;14.78;;;;;;;1.52;75.33;99475.93;1654798;86;21098;-59
2021/04/09 00:37:51;;;;;;;26.60;14.68;;;;;;;1.52;75.35;99486.11;1693884;84;21048;-61
2021/04/09 00:40:21;;;;;;;29.15;16.05;;;;;;;1.50;75.45;99480.08;1660290;86;21082;-61
2021/04/09 00:42:49;;;;;;;24.45;14.65;;;;;;;1.50;75.53;99483.90;1654792;86;21047;-60
2021/04/09 00:45:19;;;;;;;27.25;16.17;;;;;;;1.48;75.54;99485.48;1693660;85;21230;-59
2021/04/09 00:47:47;;;;;;;24.10;14.60;;;;;;;1.47;75.62;99491.33;1661892;85;21532;-59
2021/04/09 00:50:17;;;;;;;25.32;15.45;;;;;;;1.45;75.73;99486.58;1634634;86;21223;-58
2021/04/09 00:52:47;;;;;;;24.70;15.13;;;;;;;1.45;75.76;99492.94;1651150;86;21525;-59
2021/04/09 00:55:17;;;;;;;24.75;15.72;;;;;;;1.42;75.86;99493.15;1650992;86;21255;-60
2021/04/09 00:57:46;;;;;;;24.45;13.58;;;;;;;1.41;75.96;99493.95;1651006;86;21085;-60
2021/04/09 01:00:16;;;;;;;28.15;15.68;;;;;;;1.40;76.06;99493.45;1651084;86;21215;-59
2021/04/09 01:02:44;;;;;;;25.23;15.88;;;;;;;1.37;76.16;99494.16;1651213;86;21167;-60
2021/04/09 01:05:15;;;;;;;25.20;15.05;;;;;;;1.37;76.24;99494.56;1651106;87;21236;-60
2021/04/09 01:07:44;;;;;;;23.32;15.03;;;;;;;1.33;76.33;99490.98;1651602;86;21638;-61
2021/04/09 01:10:17;;;;;;;26.55;15.75;;;;;;;1.30;76.50;99494.23;1651129;87;21081;-60
2021/04/09 01:12:49;;;;;;;25.62;15.50;;;;;;;1.30;76.59;99497.17;1651118;86;21077;-59
2021/04/09 01:15:21;;;;;;;26.15;14.93;;;;;;;1.30;76.70;99499.31;1651119;86;21560;-60
2021/04/09 01:18:26;;;;;;;21.33;13.50;;;;;;;1.29;76.75;99503.03;1651112;86;21090;-60
2021/04/09 01:21:12;;;;;;;25.43;15.13;;;;;;;1.27;76.91;99498.25;1651187;86;21093;-59
2021/04/09 01:23:48;;;;;;;21.80;13.88;;;;;;;1.28;77.01;99506.37;1651337;86;21085;-62
2021/04/09 01:26:56;;;;;;;23.77;14.07;;;;;;;1.28;77.01;99506.37;1650894;87;21109;-62
2021/04/09 01:30:04;;;;;;;21.50;14.05;;;;;;;1.27;77.08;99506.78;1651381;87;21082;-60
2021/04/09 01:32:34;;;;;;;24.15;14.00;;;;;;;1.24;77.26;99515.88;1651042;86;21145;-59
2021/04/09 01:35:14;;;;;;;24.60;14.38;;;;;;;1.23;77.44;99515.41;1696486;84;21206;-59
2021/04/09 01:38:04;;;;;;;22.00;13.83;;;;;;;1.22;77.47;99519.99;1696760;84;21478;-60
2021/04/09 01:40:37;;;;;;;24.75;14.87;;;;;;;1.20;77.59;99522.87;1663005;86;21492;-60
2021/04/09 01:43:09;;;;;;;24.90;13.93;;;;;;;1.20;77.69;99517.38;1663245;86;21094;-61
2021/04/09 01:45:37;;;;;;;23.98;14.40;;;;;;;1.18;77.73;99525.71;1650994;86;21079;-61
2021/04/09 01:48:09;;;;;;;22.87;14.38;;;;;;;1.18;77.90;99525.71;1643852;86;21153;-60
2021/04/09 01:50:38;;;;;;;20.32;14.83;;;;;;;1.17;77.89;99532.84;1639115;86;21077;-62
2021/04/09 01:53:07;;;;;;;24.65;15.65;;;;;;;1.17;78.03;99535.37;1638898;86;21118;-60
2021/04/09 01:55:39;;;;;;;28.38;16.23;;;;;;;1.17;78.13;99535.02;1638921;87;21102;-59
2021/04/09 01:58:11;;;;;;;32.63;20.12;;;;;;;1.17;78.19;99546.81;1639163;87;21081;-60
2021/04/09 02:00:40;;;;;;;37.38;23.52;;;;;;;1.20;78.21;99552.10;1638868;86;21264;-61
2021/04/09 02:03:09;;;;;;;32.55;21.52;;;;;;;1.17;78.20;99553.17;1638969;86;21245;-62
2021/04/09 02:05:39;;;;;;;30.27;18.67;;;;;;;1.15;78.26;99553.11;1638879;86;21105;-61
2021/04/09 02:08:10;;;;;;;28.47;18.15;;;;;;;1.13;78.33;99552.13;1638895;86;21114;-59
2021/04/09 02:10:38;;;;;;;25.27;16.87;;;;;;;1.12;78.47;99555.84;1639025;87;21117;-59
2021/04/09 02:13:08;;;;;;;26.10;17.30;;;;;;;1.13;78.58;99563.97;1638869;86;21236;-59
2021/04/09 02:15:36;;;;;;;26.40;16.85;;;;;;;1.12;78.57;99568.55;1638880;86;21082;-59
2021/04/09 02:18:05;;;;;;;29.00;18.05;;;;;;;1.11;78.71;99570.22;1638889;86;21220;-60
2021/04/09 02:20:34;;;;;;;26.30;17.17;;;;;;;1.11;78.77;99570.62;1693953;83;21060;-59
2021/04/09 02:23:02;;;;;;;28.45;16.70;;;;;;;1.12;78.83;99568.19;1693781;83;21039;-59
2021/04/09 02:25:32;;;;;;;23.67;15.48;;;;;;;1.08;78.82;99567.11;1693712;83;21048;-60
2021/04/09 02:28:00;;;;;;;22.27;14.87;;;;;;;1.07;79.03;99564.09;1694081;83;21193;-59
2021/04/09 02:30:28;;;;;;;23.20;14.28;;;;;;;1.07;79.12;99567.91;1693902;83;21035;-61
2021/04/09 02:32:56;;;;;;;25.82;15.80;;;;;;;1.05;79.27;99561.86;1660119;86;21228;-60
2021/04/09 02:35:24;;;;;;;22.95;14.13;;;;;;;1.08;79.40;99567.11;1654924;86;21221;-60
2021/04/09 02:37:54;;;;;;;21.97;14.20;;;;;;;1.11;79.51;99566.81;1693738;85;21186;-61
2021/04/09 02:40:27;;;;;;;23.57;15.05;;;;;;;1.11;79.60;99575.30;1693948;84;21064;-59
2021/04/09 02:42:57;;;;;;;21.57;15.00;;;;;;;1.12;79.65;99574.91;1693764;85;21186;-59
2021/04/09 02:45:26;;;;;;;23.55;15.40;;;;;;;1.07;79.69;99580.63;1660075;85;21227;-60
2021/04/09 02:47:58;;;;;;;26.65;15.35;;;;;;;1.06;79.93;99579.25;1654776;86;21300;-59
2021/04/09 02:50:41;;;;;;;;;;;;;;;1.05;80.03;99582.59;1657490;86;21197;-59
2021/04/09 02:53:23;;;;;;;25.25;14.98;;;;;;;1.02;80.15;99588.37;1655173;86;20420;-62
2021/04/09 02:55:53;;;;;;;27.77;16.48;;;;;;;0.98;80.32;99585.16;1694261;83;21044;-59
2021/04/09 02:58:25;;;;;;;23.40;14.73;;;;;;;0.99;80.48;99594.55;1693930;83;21047;-61
2021/04/09 03:00:54;;;;;;;22.85;15.28;;;;;;;0.97;80.61;99596.52;1694095;84;21032;-62
2021/04/09 03:03:23;;;;;;;26.70;15.65;;;;;;;0.96;80.69;99599.83;1693882;83;21462;-60
2021/04/09 03:05:51;;;;;;;24.25;15.25;;;;;;;0.94;80.74;99605.20;1693692;83;21178;-59
2021/04/09 03:08:21;;;;;;;24.63;16.10;;;;;;;0.93;80.84;99608.55;1693849;85;21072;-60
2021/04/09 03:10:49;;;;;;;24.07;15.20;;;;;;;0.95;80.91;99612.06;1694006;83;21068;-60
2021/04/09 03:13:17;;;;;;;24.05;15.50;;;;;;;0.96;80.99;99614.67;1693708;84;21056;-60
2021/04/09 03:15:59;;;;;;;25.60;15.10;;;;;;;0.98;81.01;99622.40;1693701;85;21064;-61
2021/04/09 03:18:37;;;;;;;22.30;14.93;;;;;;;0.96;81.06;99629.92;1660037;86;21286;-61
2021/04/09 03:21:06;;;;;;;22.00;14.63;;;;;;;0.97;81.18;99630.42;1655031;86;21474;-61
2021/04/09 03:23:34;;;;;;;21.40;14.40;;;;;;;0.98;81.40;99628.36;1654896;86;21217;-60
2021/04/09 03:26:02;;;;;;;21.35;13.83;;;;;;;0.99;81.35;99631.40;1693899;83;21052;-60
2021/04/09 03:28:30;;;;;;;23.95;14.68;;;;;;;1.02;81.54;99639.20;1693931;83;21060;-60
2021/04/09 03:30:59;;;;;;;23.07;15.43;;;;;;;1.08;81.53;99645.03;1660041;85;21184;-60
2021/04/09 03:33:27;;;;;;;26.05;16.65;;;;;;;1.10;81.42;99646.01;1631885;86;21050;-60
2021/04/09 03:35:55;;;;;;;26.97;17.00;;;;;;;1.12;81.40;99645.71;1693741;83;21036;-59
2021/04/09 03:38:23;;;;;;;24.87;15.32;;;;;;;1.12;81.39;99651.16;1660260;86;21220;-61
2021/04/09 03:40:52;;;;;;;22.17;15.05;;;;;;;1.15;81.38;99652.64;1631831;87;21039;-61
2021/04/09 03:43:20;;;;;;;26.50;17.15;;;;;;;1.18;81.36;99661.71;1693909;83;21178;-60
2021/04/09 03:45:48;;;;;;;27.55;15.45;;;;;;;1.22;81.32;99664.53;1660182;85;21185;-59
2021/04/09 03:48:16;;;;;;;26.07;17.35;;;;;;;1.29;81.46;99665.75;1632910;87;21268;-60
2021/04/09 03:50:45;;;;;;;28.27;17.48;;;;;;;1.38;81.35;99671.39;1634823;86;21237;-61
2021/04/09 03:53:13;;;;;;;29.50;17.70;;;;;;;1.42;81.23;99676.25;1634854;86;21521;-60
2021/04/09 03:55:42;;;;;;;23.87;16.10;;;;;;;1.48;81.17;99678.77;1651257;86;21248;-60
2021/04/09 03:58:10;;;;;;;27.82;17.50;;;;;;;1.53;81.13;99676.50;1672744;86;21094;-59
2021/04/09 04:00:38;;;;;;;25.05;16.07;;;;;;;1.63;81.01;99688.06;1634910;86;21461;-61
2021/04/09 04:03:06;;;;;;;26.37;17.17;;;;;;;1.71;80.94;99689.00;1634723;86;21216;-60
2021/04/09 04:05:34;;;;;;;24.35;16.62;;;;;;;1.82;80.91;99685.80;1651139;86;21066;-61
2021/04/09 04:08:02;;;;;;;29.20;16.85;;;;;;;1.94;80.63;99696.67;1673036;85;21201;-62
2021/04/09 04:10:31;;;;;;;25.82;16.95;;;;;;;2.05;80.24;99704.05;1634569;87;21074;-62
2021/04/09 04:13:01;;;;;;;26.60;15.63;;;;;;;2.14;80.11;99698.20;1672292;84;21038;-61
2021/04/09 04:15:29;;;;;;;30.17;16.57;;;;;;;2.25;79.87;99703.48;1667784;85;21050;-61
2021/04/09 04:17:57;;;;;;;26.62;16.25;;;;;;;2.34;79.60;99710.38;1683097;84;21212;-60
2021/04/09 04:20:25;;;;;;;26.85;17.27;;;;;;;2.43;79.29;99712.95;1679234;85;21047;-59
2021/04/09 04:22:53;;;;;;;24.40;16.37;;;;;;;2.51;79.09;99718.93;1637308;87;21116;-62
2021/04/09 04:25:21;;;;;;;25.95;17.42;;;;;;;2.59;78.78;99717.67;1652061;86;21086;-65
2021/04/09 04:27:49;;;;;;;25.85;17.10;;;;;;;2.68;78.59;99721.14;1634468;86;21197;-61
2021/04/09 04:30:18;;;;;;;27.17;17.50;;;;;;;2.76;78.29;99721.55;1635694;85;21306;-61
2021/04/09 04:32:47;;;;;;;28.17;16.67;;;;;;;2.89;78.17;99725.64;1653265;85;21116;-61
2021/04/09 04:35:15;;;;;;;28.45;18.07;;;;;;;3.04;77.72;99728.59;1631812;87;21140;-62
2021/04/09 04:37:44;;;;;;;26.23;17.35;;;;;;;3.16;77.42;99732.20;1649515;86;21457;-62
2021/04/09 04:40:13;;;;;;;28.42;17.90;;;;;;;3.34;76.94;99740.34;1650473;86;21113;-60
2021/04/09 04:42:41;;;;;;;27.87;17.92;;;;;;;3.51;76.51;99737.38;1633788;87;21126;-61
2021/04/09 04:45:17;;;;;;;27.70;17.70;;;;;;;3.67;75.93;99748.45;1651339;86;21152;-62
2021/04/09 04:47:45;;;;;;;27.52;17.30;;;;;;;3.79;75.48;99749.86;1629967;86;21128;-62
2021/04/09 04:50:13;;;;;;;23.90;16.87;;;;;;;3.97;74.91;99754.64;1631451;86;21117;-62
2021/04/09 04:52:41;;;;;;;23.40;16.32;;;;;;;4.12;74.56;99754.12;1696060;81;21083;-64
2021/04/09 04:55:11;;;;;;;26.00;17.40;;;;;;;4.28;73.98;99758.30;1689958;83;20992;-63
2021/04/09 04:57:39;;;;;;;26.55;17.50;;;;;;;4.44;73.49;99757.34;1691144;83;21067;-63
2021/04/09 05:00:09;;;;;;;30.65;18.67;;;;;;;4.64;72.92;99761.27;1688674;84;21253;-61
2021/04/09 05:02:36;;;;;;;26.70;17.10;;;;;;;4.82;72.30;99765.95;1692815;83;21103;-62
2021/04/09 05:05:07;;;;;;;28.42;18.95;;;;;;;5.08;71.77;99763.31;1689975;83;21194;-62
2021/04/09 05:07:34;;;;;;;28.45;18.27;;;;;;;5.28;70.83;99773.58;1690962;83;21076;-63
2021/04/09 05:10:06;;;;;;;28.80;18.12;;;;;;;5.32;70.35;99772.52;1691320;84;21092;-62
2021/04/09 05:12:35;;;;;;;29.42;18.73;;;;;;;5.42;69.83;99775.95;1705537;83;21068;-61
2021/04/09 05:15:05;;;;;;;30.15;18.95;;;;;;;5.53;69.47;99784.52;1691368;83;21222;-60
2021/04/09 05:17:35;;;;;;;29.10;18.05;;;;;;;5.62;69.18;99781.96;1689727;84;21073;-60
2021/04/09 05:20:08;;;;;;;26.87;17.45;;;;;;;5.71;68.60;99787.87;1692378;83;21217;-61
2021/04/09 05:22:36;;;;;;;27.25;19.05;;;;;;;5.74;68.31;99789.28;1672562;85;21088;-62
2021/04/09 05:25:06;;;;;;;28.27;21.12;;;;;;;5.77;67.94;99783.00;1693631;84;21036;-61
2021/04/09 05:27:34;;;;;;;33.25;21.57;;;;;;;5.71;67.68;99790.44;1690025;84;21070;-61
2021/04/09 05:30:04;;;;;;;30.90;21.00;;;;;;;5.70;67.59;99789.98;1683054;84;21234;-61
2021/04/09 05:32:33;;;;;;;28.30;18.45;;;;;;;5.74;67.59;99798.24;1687603;84;21121;-62
2021/04/09 05:35:01;;;;;;;31.23;18.32;;;;;;;5.80;67.34;99802.37;1684517;84;21075;-62
2021/04/09 05:37:29;;;;;;;26.82;18.20;;;;;;;5.91;67.10;99801.55;1631077;87;21235;-62
2021/04/09 05:39:57;;;;;;;24.40;16.42;;;;;;;6.05;66.86;99800.88;1654750;86;21066;-61
2021/04/09 05:42:25;;;;;;;25.02;17.07;;;;;;;6.23;66.46;99804.23;1654603;86;21267;-62
2021/04/09 05:44:53;;;;;;;29.00;18.00;;;;;;;6.43;66.06;99808.88;1652517;86;21059;-61
2021/04/09 05:47:23;;;;;;;26.50;17.75;;;;;;;6.58;65.27;99809.04;1651731;87;21078;-60
2021/04/09 05:49:51;;;;;;;25.50;17.75;;;;;;;6.84;65.01;99810.08;1649812;86;21615;-61
2021/04/09 05:52:19;;;;;;;26.05;17.57;;;;;;;7.24;64.09;99810.34;1653307;86;21233;-61
2021/04/09 05:54:48;;;;;;;24.35;17.17;;;;;;;7.71;63.01;99816.34;1651598;86;21257;-61
2021/04/09 05:57:17;;;;;;;27.10;17.40;;;;;;;8.21;62.11;99821.97;1653984;86;21476;-60
2021/04/09 05:59:45;;;;;;;25.90;17.62;;;;;;;8.63;60.69;99819.55;1651985;86;21173;-62
2021/04/09 06:02:14;;;;;;;27.93;16.57;;;;;;;8.97;59.75;99825.75;1654517;85;21185;-60
2021/04/09 06:04:42;;;;;;;21.70;16.17;;;;;;;9.30;58.45;99825.91;1693633;83;21228;-60
2021/04/09 06:07:10;;;;;;;23.95;15.63;;;;;;;10.44;56.78;99831.23;1695438;83;21079;-60
2021/04/09 06:09:38;;;;;;;23.80;14.87;;;;;;;12.19;53.13;99836.40;1694712;83;21080;-62
2021/04/09 06:12:09;;;;;;;19.90;13.68;;;;;;;12.86;49.83;99840.55;1695526;83;21490;-62
2021/04/09 06:14:37;;;;;;;22.22;13.78;;;;;;;13.26;47.63;99839.86;1693685;83;21118;-63
2021/04/09 06:17:06;;;;;;;19.40;13.88;;;;;;;13.89;46.79;99844.17;1693942;83;21166;-64
2021/04/09 06:19:34;;;;;;;18.87;13.88;;;;;;;15.28;44.05;99843.68;1692112;85;21071;-62
2021/04/09 06:22:03;;;;;;;19.25;13.13;;;;;;;16.33;40.45;99848.02;1690742;83;21287;-62
2021/04/09 06:24:31;;;;;;;16.93;13.83;;;;;;;17.04;39.99;99856.34;1694083;83;21075;-62
2021/04/09 06:27:02;;;;;;;19.57;13.22;;;;;;;18.38;38.02;99858.50;1661418;85;21094;-63
2021/04/09 06:29:30;;;;;;;17.98;12.33;;;;;;;20.08;35.51;99858.63;1690107;83;21031;-61
2021/04/09 06:31:58;;;;;;;16.20;13.15;;;;;;;21.57;33.03;99865.41;1667892;85;21065;-63
2021/04/09 06:34:27;;;;;;;18.57;12.05;;;;;;;22.87;30.98;99868.27;1701225;83;21205;-62
2021/04/09 06:36:55;;;;;;;15.38;11.68;;;;;;;24.09;29.05;99876.42;1702364;82;21198;-62
2021/04/09 06:39:24;;;;;;;15.80;11.80;;;;;;;25.18;27.19;99883.09;1712787;83;21002;-62
2021/04/09 06:41:52;;;;;;;14.55;10.93;;;;;;;25.70;25.19;99882.59;1681995;84;21072;-64
2021/04/09 06:44:20;;;;;;;13.78;11.12;;;;;;;25.58;25.73;99888.78;1720545;82;21089;-64
2021/04/09 06:46:48;;;;;;;13.68;11.18;;;;;;;26.18;25.11;99894.94;1718763;83;21067;-64
2021/04/09 06:49:18;;;;;;;11.95;9.95;;;;;;;26.94;24.02;99895.45;1694767;83;21091;-63
2021/04/09 06:51:47;;;;;;;13.03;9.53;;;;;;;26.99;23.42;99897.44;1700994;83;21056;-61
2021/04/09 06:54:17;;;;;;;13.22;11.08;;;;;;;26.32;23.96;99906.77;1709628;83;21232;-63
2021/04/09 06:56:47;;;;;;;13.22;10.35;;;;;;;26.58;23.20;99913.70;1705779;83;21602;-62
2021/04/09 06:59:17;;;;;;;13.58;10.18;;;;;;;26.95;23.20;99906.47;1687206;84;21515;-61
2021/04/09 07:01:46;;;;;;;13.40;10.58;;;;;;;27.77;21.51;99917.11;1678102;84;21159;-64
2021/04/09 07:04:14;;;;;;;11.57;9.63;;;;;;;26.84;22.64;99912.20;1691209;83;21255;-62
2021/04/09 07:06:42;;;;;;;13.10;10.43;;;;;;;27.25;22.36;99918.07;1692832;83;21165;-63
2021/04/09 07:09:14;;;;;;;11.38;9.63;;;;;;;27.56;22.02;99917.59;1712746;83;21235;-65
2021/04/09 07:11:51;;;;;;;11.40;9.50;;;;;;;27.70;21.69;99923.14;1708477;83;21164;-61
2021/04/09 07:14:22;;;;;;;14.85;10.20;;;;;;;28.36;21.12;99928.12;1713855;83;21197;-62
2021/04/09 07:17:03;;;;;;;13.85;10.45;;;;;;;28.74;20.51;99930.77;1688442;83;21103;-61
2021/04/09 07:19:35;;;;;;;17.10;10.45;;;;;;;28.54;20.38;99929.07;1712197;83;21129;-62
2021/04/09 07:22:06;;;;;;;22.52;10.03;;;;;;;28.06;20.75;99926.89;1711362;83;21212;-64
2021/04/09 07:24:34;;;;;;;11.97;9.05;;;;;;;28.54;20.55;99929.07;1702924;83;21652;-62
2021/04/09 07:27:04;;;;;;;11.97;9.70;;;;;;;29.41;19.88;99931.02;1705379;83;21201;-63
2021/04/09 07:29:36;;;;;;;12.10;9.05;;;;;;;30.23;19.37;99939.59;1690124;83;21047;-64
2021/04/09 07:32:14;;;;;;;10.00;8.83;;;;;;;30.25;18.78;99933.72;1676019;84;21056;-63
2021/04/09 07:35:03;;;;;;;9.93;8.08;;;;;;;30.20;18.79;99937.96;1685693;84;21182;-63
2021/04/09 07:37:35;;;;;;;10.00;8.00;;;;;;;30.35;18.28;99940.73;1681289;84;21222;-63
2021/04/09 07:40:05;;;;;;;10.65;7.58;;;;;;;30.23;18.29;99941.78;1676158;84;21530;-62
2021/04/09 07:42:37;;;;;;;10.95;7.33;;;;;;;30.70;17.68;99941.43;1680887;84;21501;-64
2021/04/09 07:45:10;;;;;;;10.88;8.03;;;;;;;30.99;17.35;99942.47;1685185;84;21052;-62
2021/04/09 07:47:42;;;;;;;10.20;7.37;;;;;;;30.90;17.33;99953.66;1687389;84;21225;-64
2021/04/09 07:50:12;;;;;;;11.15;7.47;;;;;;;30.88;17.40;99953.73;1681508;83;21123;-62
2021/04/09 07:52:49;;;;;;;8.13;6.37;;;;;;;30.73;17.12;99951.91;1681029;85;21084;-61
2021/04/09 07:55:22;;;;;;;7.67;6.00;;;;;;;29.66;16.94;99947.08;1682819;85;20988;-62
2021/04/09 07:57:51;;;;;;;7.80;5.80;;;;;;;28.45;17.34;99951.25;1675885;85;21570;-58
2021/04/09 08:00:27;;;;;;;8.43;5.97;;;;;;;27.95;17.79;99951.73;1674669;85;21164;-61
2021/04/09 08:02:56;;;;;;;8.18;5.05;;;;;;;27.30;18.59;99950.55;1635317;87;21388;-63
2021/04/09 08:05:27;;;;;;;6.22;4.83;;;;;;;27.44;18.40;99945.50;1621870;88;21474;-62
2021/04/09 08:07:55;;;;;;;7.17;5.03;;;;;;;27.93;18.02;99946.02;1623745;87;21615;-62
2021/04/09 08:10:32;;;;;;;6.45;4.30;;;;;;;28.27;17.48;99942.31;1653419;85;21091;-66
2021/04/09 08:13:02;;;;;;;10.35;4.80;;;;;;;28.39;17.02;99931.09;1654104;86;21203;-62
2021/04/09 08:15:35;;;;;;;6.33;4.37;;;;;;;28.39;17.55;99940.39;1651319;87;21062;-63
2021/04/09 08:18:09;;;;;;;7.80;4.90;;;;;;;29.05;17.34;99933.28;1647183;86;21171;-62
2021/04/09 08:20:43;;;;;;;7.95;5.60;;;;;;;29.38;17.10;99942.67;1625162;88;21093;-61
2021/04/09 08:23:15;;;;;;;7.95;5.33;;;;;;;28.38;17.54;99940.48;1640677;87;21305;-63
2021/04/09 08:25:44;;;;;;;7.65;4.97;;;;;;;26.39;18.69;99942.66;1638927;87;21181;-61
2021/04/09 08:28:13;;;;;;;7.47;4.85;;;;;;;24.39;19.71;99943.23;1644008;87;21216;-63
2021/04/09 08:30:43;;;;;;;7.17;4.95;;;;;;;22.63;20.84;99940.33;1650162;86;21177;-61
2021/04/09 08:33:12;;;;;;;6.75;4.87;;;;;;;20.95;22.47;99933.42;1637981;87;21117;-62
2021/04/09 08:35:44;;;;;;;8.18;4.90;;;;;;;19.84;23.58;99935.31;1637981;87;21088;-60
2021/04/09 08:38:12;;;;;;;;;;;;;;;19.48;24.33;99932.63;1640611;87;21133;-61
2021/04/09 08:40:40;;;;;;;9.40;4.92;;;;;;;20.33;23.77;99932.12;1625402;88;20163;-60
2021/04/09 08:43:08;;;;;;;7.78;4.72;;;;;;;21.49;22.84;99925.11;1653372;87;21151;-61
2021/04/09 08:45:37;;;;;;;8.05;4.78;;;;;;;21.57;22.27;99932.40;1653381;87;21109;-61
2021/04/09 08:48:12;;;;;;;6.80;4.08;;;;;;;20.62;22.62;99928.70;1652908;85;21071;-63
2021/04/09 08:50:44;;;;;;;7.42;4.40;;;;;;;18.96;24.31;99932.64;1596731;87;21776;-60
2021/04/09 08:53:26;;;;;;;12.65;4.62;;;;;;;17.77;26.04;99931.45;1663480;85;21048;-63
2021/04/09 08:55:54;;;;;;;7.35;4.75;;;;;;;17.66;26.37;99931.92;1619667;88;21203;-60
2021/04/09 08:58:23;;;;;;;7.95;4.78;;;;;;;17.49;26.35;99934.56;1649460;86;21200;-62
2021/04/09 09:00:55;;;;;;;7.55;4.85;;;;;;;17.20;26.23;99928.05;1638363;87;21203;-63
2021/04/09 09:03:29;;;;;;;9.20;4.55;;;;;;;16.70;26.57;99932.34;1639984;87;21076;-61
2021/04/09 09:06:06;;;;;;;8.13;4.22;;;;;;;16.32;26.79;99933.56;1620829;88;21175;-59
2021/04/09 09:08:52;;;;;;;6.53;4.03;;;;;;;15.72;26.69;99928.97;1710115;84;21246;-62
2021/04/09 09:11:53;;;;;;;6.90;3.95;;;;;;;15.20;26.83;99929.44;1712298;83;21232;-63
2021/04/09 09:14:39;;;;;;;8.30;4.60;;;;;;;15.16;27.07;99930.70;1687916;84;21101;-62
2021/04/09 09:17:26;;;;;;;12.13;5.75;;;;;;;15.07;27.70;99929.34;1685288;84;21057;-62
2021/04/09 09:20:10;;;;;;;6.47;4.25;;;;;;;15.10;27.41;99932.83;1686340;84;21202;-61
2021/04/09 09:22:55;;;;;;;13.53;5.47;;;;;;;14.73;27.97;99929.02;1699036;83;21086;-61
2021/04/09 09:25:37;;;;;;;9.60;4.87;;;;;;;14.14;29.16;99937.02;1695027;83;21025;-62
2021/04/09 09:28:09;;;;;;;10.05;4.87;;;;;;;13.76;29.27;99926.58;1699558;83;21190;-61
2021/04/09 09:30:40;;;;;;;9.60;4.67;;;;;;;13.20;30.35;99926.19;1684971;85;21075;-62
2021/04/09 09:33:27;;;;;;;8.53;4.60;;;;;;;12.98;30.32;99929.27;1710668;83;21079;-61
2021/04/09 09:36:03;;;;;;;6.33;3.58;;;;;;;12.46;29.80;99928.33;1657626;86;21078;-60
2021/04/09 09:38:57;;;;;;;7.53;3.70;;;;;;;12.07;30.01;99932.76;1657990;86;21289;-62
2021/04/09 09:41:43;;;;;;;7.37;4.00;;;;;;;11.97;30.51;99936.42;1657841;86;21100;-60
2021/04/09 09:44:31;;;;;;;7.58;4.42;;;;;;;12.14;31.07;99933.77;1673775;84;21078;-59
2021/04/09 09:47:09;;;;;;;8.45;4.12;;;;;;;12.53;30.39;99922.43;1683049;84;21072;-61
2021/04/09 09:49:37;;;;;;;7.40;3.92;;;;;;;12.85;30.09;99925.61;1708256;83;21046;-63
2021/04/09 09:52:23;;;;;;;6.30;4.17;;;;;;;13.05;29.08;99923.32;1727203;83;21204;-63
2021/04/09 09:55:14;;;;;;;6.90;3.83;;;;;;;12.76;28.85;99928.89;1724251;82;21074;-61
2021/04/09 09:57:46;;;;;;;6.08;3.62;;;;;;;12.66;28.50;99924.39;1727398;83;21034;-63
2021/04/09 10:00:19;;;;;;;6.95;3.20;;;;;;;12.81;27.17;99927.67;1713565;83;21099;-65
2021/04/09 10:02:47;;;;;;;5.67;3.37;;;;;;;12.73;26.88;99926.25;1707858;83;21072;-63
2021/04/09 10:05:15;;;;;;;7.35;3.47;;;;;;;12.66;26.80;99920.50;1717997;83;21113;-63
2021/04/09 10:07:45;;;;;;;8.13;3.75;;;;;;;12.72;27.01;99926.21;1725581;83;21128;-60
2021/04/09 10:10:15;;;;;;;8.85;3.42;;;;;;;12.71;27.29;99927.94;1718916;83;21037;-64
2021/04/09 10:12:44;;;;;;;8.45;4.22;;;;;;;12.80;27.87;99929.83;1727141;82;21115;-63
2021/04/09 10:15:13;;;;;;;8.25;3.62;;;;;;;13.06;29.33;99912.13;1727095;83;21225;-64
2021/04/09 10:17:40;;;;;;;10.65;4.30;;;;;;;13.13;28.96;99917.00;1727082;83;21097;-63
2021/04/09 10:20:11;;;;;;;7.42;3.95;;;;;;;12.92;30.03;99920.08;1727029;83;21184;-64
2021/04/09 10:22:39;;;;;;;8.98;4.72;;;;;;;12.94;30.24;99917.10;1721795;83;21073;-62
2021/04/09 10:25:08;;;;;;;8.40;4.30;;;;;;;13.04;29.87;99919.00;1725088;83;21160;-63
2021/04/09 10:27:44;;;;;;;8.23;3.87;;;;;;;13.16;29.76;99917.91;1719833;83;21302;-64
2021/04/09 10:30:15;;;;;;;8.73;4.05;;;;;;;13.37;30.16;99907.45;1727283;83;21045;-62
2021/04/09 10:32:49;;;;;;;6.78;4.20;;;;;;;13.69;29.62;99915.70;1703332;83;21085;-63
2021/04/09 10:35:26;;;;;;;10.15;4.45;;;;;;;13.50;28.70;99914.55;1718239;82;21692;-63
2021/04/09 10:38:14;;;;;;;6.50;3.87;;;;;;;13.05;29.18;99911.66;1727086;83;21058;-63
2021/04/09 10:40:55;;;;;;;6.80;3.70;;;;;;;13.09;29.41;99912.17;1722198;83;21220;-63
2021/04/09 10:43:31;;;;;;;10.28;4.30;;;;;;;13.37;29.59;99911.34;1693829;83;21208;-63
2021/04/09 10:46:14;;;;;;;6.25;3.85;;;;;;;13.68;29.29;99908.31;1720721;83;21651;-63
2021/04/09 10:48:41;;;;;;;6.75;3.10;;;;;;;13.87;28.66;99913.77;1721785;83;21568;-62
2021/04/09 10:51:10;;;;;;;9.08;3.55;;;;;;;13.89;28.53;99912.94;1725654;81;21368;-62
2021/04/09 10:53:40;;;;;;;7.28;4.03;;;;;;;13.79;28.30;99906.28;1724282;81;21046;-62
2021/04/09 10:56:10;;;;;;;7.33;4.00;;;;;;;13.62;28.50;99909.97;1730936;82;21014;-63
2021/04/09 10:58:43;;;;;;;6.55;2.98;;;;;;;13.57;28.48;99911.20;1723863;82;21031;-62
2021/04/09 11:01:11;;;;;;;7.20;3.67;;;;;;;13.43;28.85;99908.42;1731013;81;21106;-62
2021/04/09 11:03:41;;;;;;;6.10;3.62;;;;;;;13.32;28.50;99907.80;1730087;83;21047;-62
2021/04/09 11:06:10;;;;;;;9.98;3.45;;;;;;;12.97;28.52;99904.19;1730679;82;21099;-62
2021/04/09 11:08:40;;;;;;;6.50;3.37;;;;;;;12.63;28.46;99902.33;1724064;81;21015;-62
2021/04/09 11:11:14;;;;;;;4.67;3.00;;;;;;;12.47;28.72;99908.09;1730900;81;21219;-62
2021/04/09 11:13:43;;;;;;;8.43;3.77;;;;;;;12.38;28.73;99902.30;1725488;82;21592;-63
2021/04/09 11:16:12;;;;;;;9.30;3.70;;;;;;;12.60;28.60;99904.88;1731182;81;21110;-63
2021/04/09 11:18:56;;;;;;;6.00;3.35;;;;;;;12.82;28.56;99907.39;1730768;82;21168;-64
2021/04/09 11:21:49;;;;;;;5.80;2.90;;;;;;;12.96;28.55;99901.16;1726164;82;21091;-64
2021/04/09 11:24:25;;;;;;;;;;;;;;;12.97;29.25;99901.59;1733479;81;21192;-63
2021/04/09 11:26:54;;;;;;;7.20;3.40;;;;;;;13.16;29.31;99899.76;1730862;82;20389;-63
2021/04/09 11:29:32;;;;;;;5.72;3.40;;;;;;;13.37;29.14;99890.16;1730854;81;21161;-62
2021/04/09 11:32:17;;;;;;;6.95;4.28;;;;;;;13.66;28.89;99888.39;1724842;81;21050;-63
2021/04/09 11:34:50;;;;;;;6.35;3.00;;;;;;;14.03;28.59;99892.33;1727079;81;21192;-62
2021/04/09 11:37:20;;;;;;;6.80;3.58;;;;;;;13.73;28.30;99894.55;1723448;81;21129;-62
2021/04/09 11:39:55;;;;;;;8.07;4.50;;;;;;;13.29;29.12;99902.58;1730486;81;21125;-61
2021/04/09 11:42:36;;;;;;;7.15;3.47;;;;;;;13.24;29.57;99882.59;1729490;83;21135;-61
2021/04/09 11:45:08;;;;;;;9.53;3.92;;;;;;;13.20;29.40;99883.81;1729742;83;21488;-61
2021/04/09 11:47:39;;;;;;;6.17;3.85;;;;;;;13.10;29.80;99880.24;1729191;82;21045;-64